Anniston Metropolitan Airport Anniston US
ICAO: KANB
IATA: ANB
Category: Medium
Scheduled Services: No

Elevation: 612 ft
TransAlt. 18000 ft.

Airport Communications:
BIRMINGHAM APP/DEP:125.45
ASOS:119.675
CTAF:123.6
RDO:122.2
UNICOM:123

KANB Zoom In..

Runways:

(A) RW 05 length 7000 ft width 150 ft
ILS 111.50 / hdg 49

(B) RW 23 length 7000 ft width 150 ft
---- / hdg 229

Location; KANB
Day. 23 / Time. 09.53 Zulu
* Altimeter: 29.81
* Temperature: 20° c. 68°f.
* Wind from: 000° Speed 00 kn.
Dewpoint: 19° c.
Visibility: 8 Statute Miles.
Clouds: Broken 4300 ft.

KANB 230953Z AUTO 00000KT 8SM BKN043 20/19 A2981 RMK AO2 SLP084 T02000189


Wind - Calm.

 
 
jpsmedia.com for Web Design worldairports.se 2018   terms of use